createdAt,value
2018-01-23T00:00:25.065Z,13.15
2018-01-23T00:02:54.041Z,11.15
2018-01-23T00:05:21.491Z,9.43
2018-01-23T00:07:49.699Z,4.53
2018-01-23T00:10:17.727Z,6.53
2018-01-23T00:12:45.659Z,7.53
2018-01-23T00:15:13.139Z,7.53
2018-01-23T00:17:41.022Z,7.18
2018-01-23T00:20:08.489Z,11.15
2018-01-23T00:22:36.906Z,16.05
2018-01-23T00:25:04.766Z,11.18
2018-01-23T00:27:32.266Z,11.05
2018-01-23T00:30:00.564Z,6.15
2018-01-23T00:32:28.029Z,6.22
2018-01-23T00:34:55.558Z,10.00
2018-01-23T00:37:23.070Z,15.18
2018-01-23T00:39:50.982Z,9.68
2018-01-23T00:42:18.920Z,17.70
2018-01-23T00:44:47.178Z,7.55
2018-01-23T00:47:15.031Z,17.55
2018-01-23T00:49:42.541Z,7.28
2018-01-23T00:52:10.483Z,12.73
2018-01-23T00:54:38.806Z,8.02
2018-01-23T00:57:07.102Z,16.12
2018-01-23T00:59:34.700Z,16.67
2018-01-23T01:02:03.284Z,17.45
2018-01-23T01:04:30.774Z,7.60
2018-01-23T01:06:59.999Z,8.00
2018-01-23T01:09:27.529Z,9.85
2018-01-23T01:11:55.496Z,12.37
2018-01-23T01:14:23.019Z,9.25
2018-01-23T01:16:51.240Z,10.02
2018-01-23T01:19:19.463Z,17.15
2018-01-23T01:21:48.087Z,7.78
2018-01-23T01:24:15.559Z,6.82
2018-01-23T01:26:43.032Z,6.95
2018-01-23T01:29:11.235Z,8.07
2018-01-23T01:31:39.095Z,13.48
2018-01-23T01:34:06.566Z,8.20
2018-01-23T01:36:34.460Z,9.10
2018-01-23T01:39:02.027Z,10.98
2018-01-23T01:41:29.942Z,9.45
2018-01-23T01:43:58.103Z,10.25
2018-01-23T01:46:25.964Z,8.20
2018-01-23T01:48:54.495Z,9.20
2018-01-23T01:51:22.438Z,9.52
2018-01-23T01:53:49.896Z,8.63
2018-01-23T01:56:17.758Z,9.88
2018-01-23T01:58:46.299Z,11.05
2018-01-23T02:01:14.899Z,3.30
2018-01-23T02:03:42.782Z,14.57
2018-01-23T02:06:10.970Z,6.12
2018-01-23T02:08:40.215Z,15.48
2018-01-23T02:11:07.670Z,5.75
2018-01-23T02:13:35.503Z,10.02
2018-01-23T02:16:03.734Z,8.45
2018-01-23T02:18:31.983Z,12.98
2018-01-23T02:20:59.817Z,13.15
2018-01-23T02:23:27.742Z,14.75
2018-01-23T02:25:55.274Z,9.48
2018-01-23T02:28:23.910Z,7.72
2018-01-23T02:30:51.771Z,7.28
2018-01-23T02:33:19.239Z,5.82
2018-01-23T02:35:47.103Z,6.37
2018-01-23T02:38:15.119Z,4.95
2018-01-23T02:40:43.356Z,6.82
2018-01-23T02:43:11.671Z,13.30
2018-01-23T02:45:39.140Z,14.63
2018-01-23T02:48:06.591Z,9.18
2018-01-23T02:50:34.511Z,10.90
2018-01-23T02:53:02.749Z,12.32
2018-01-23T02:55:30.621Z,9.63
2018-01-23T02:57:58.611Z,10.38
2018-01-23T03:00:26.073Z,8.70
2018-01-23T03:02:53.554Z,19.27
2018-01-23T03:05:21.396Z,7.00
2018-01-23T03:07:49.625Z,18.05
2018-01-23T03:10:17.491Z,8.88
2018-01-23T03:12:45.359Z,18.50
2018-01-23T03:15:12.827Z,11.95
2018-01-23T03:17:41.292Z,11.70
2018-01-23T03:20:09.057Z,17.10
2018-01-23T03:22:37.121Z,11.40
2018-01-23T03:25:05.360Z,12.23
2018-01-23T03:27:34.047Z,13.90
2018-01-23T03:30:02.360Z,13.55
2018-01-23T03:32:29.832Z,6.45
2018-01-23T03:34:57.661Z,15.45
2018-01-23T03:37:25.139Z,12.23
2018-01-23T03:39:52.604Z,21.05
2018-01-23T03:42:20.079Z,10.93
2018-01-23T03:44:47.539Z,9.95
2018-01-23T03:47:15.412Z,7.00
2018-01-23T03:49:43.651Z,13.52
2018-01-23T03:52:11.523Z,14.55
2018-01-23T03:54:38.984Z,11.00
2018-01-23T03:57:06.856Z,15.82
2018-01-23T03:59:34.326Z,12.80
2018-01-23T04:02:01.806Z,15.88
2018-01-23T04:04:30.059Z,17.05
2018-01-23T04:06:58.295Z,17.40
2018-01-23T04:09:26.545Z,12.20
2018-01-23T04:11:55.116Z,12.75
2018-01-23T04:14:23.030Z,15.52
2018-01-23T04:16:50.514Z,11.98
2018-01-23T04:19:18.019Z,12.95
2018-01-23T04:21:45.883Z,13.43
2018-01-23T04:24:14.139Z,12.02
2018-01-23T04:26:41.624Z,11.73
2018-01-23T04:29:09.086Z,12.02
2018-01-23T04:31:37.377Z,12.48
2018-01-23T04:34:05.695Z,17.83
2018-01-23T04:36:33.948Z,8.70
2018-01-23T04:39:01.417Z,13.50
2018-01-23T04:41:29.186Z,11.48
2018-01-23T04:43:57.079Z,13.68
2018-01-23T04:46:25.307Z,8.07
2018-01-23T04:48:53.515Z,9.63
2018-01-23T04:51:20.979Z,14.45
2018-01-23T04:53:48.443Z,6.62
2018-01-23T04:56:16.607Z,12.15
2018-01-23T04:58:44.563Z,8.95
2018-01-23T05:01:12.031Z,10.25
2018-01-23T05:03:40.614Z,10.40
2018-01-23T05:06:08.466Z,9.07
2018-01-23T05:08:35.922Z,9.15
2018-01-23T05:11:04.163Z,15.82
2018-01-23T05:13:32.763Z,7.57
2018-01-23T05:16:00.987Z,7.05
2018-01-23T05:18:29.548Z,12.82
2018-01-23T05:20:57.775Z,14.27
2018-01-23T05:23:26.461Z,12.80
2018-01-23T05:25:54.279Z,12.93
2018-01-23T05:28:21.755Z,10.93
2018-01-23T05:30:49.227Z,9.95
2018-01-23T05:33:16.703Z,12.18
2018-01-23T05:35:44.665Z,11.80
2018-01-23T05:38:12.522Z,9.50
2018-01-23T05:40:40.767Z,10.25
2018-01-23T05:43:08.635Z,10.95
2018-01-23T05:45:36.120Z,8.85
2018-01-23T05:48:03.920Z,23.02
2018-01-23T05:50:31.790Z,11.27
2018-01-23T05:52:59.261Z,16.10
2018-01-23T05:55:27.441Z,14.20
2018-01-23T05:57:55.311Z,12.30
2018-01-23T06:00:23.172Z,17.08
2018-01-23T06:02:51.760Z,18.25
2018-01-23T06:05:19.631Z,15.40
2018-01-23T06:07:47.495Z,16.02
2018-01-23T06:10:16.840Z,12.30
2018-01-23T06:12:44.717Z,9.30
2018-01-23T06:15:12.950Z,19.48
2018-01-23T06:17:40.819Z,17.45
2018-01-23T06:20:08.696Z,14.32
2018-01-23T06:22:36.169Z,18.92
2018-01-23T06:25:04.449Z,16.73
2018-01-23T06:27:33.058Z,16.40
2018-01-23T06:30:00.538Z,14.13
2018-01-23T06:32:28.797Z,19.00
2018-01-23T06:34:56.296Z,23.52
2018-01-23T06:37:24.170Z,20.25
2018-01-23T06:39:52.034Z,12.68
2018-01-23T06:42:19.499Z,14.80
2018-01-23T06:44:47.378Z,19.60
2018-01-23T06:47:15.766Z,14.05
2018-01-23T06:49:44.047Z,22.23
2018-01-23T06:52:11.963Z,16.55
2018-01-23T06:54:40.247Z,16.23
2018-01-23T06:57:08.487Z,11.35
2018-01-23T06:59:36.726Z,12.80
2018-01-23T07:02:05.841Z,16.42
2018-01-23T07:04:33.319Z,15.85
2018-01-23T07:07:00.795Z,19.42
2018-01-23T07:09:29.049Z,12.07
2018-01-23T07:11:56.517Z,13.77
2018-01-23T07:14:24.037Z,11.65
2018-01-23T07:16:53.072Z,11.80
2018-01-23T07:19:20.931Z,17.70
2018-01-23T07:21:49.267Z,9.23
2018-01-23T07:24:17.643Z,13.98
2018-01-23T07:26:45.108Z,13.18
2018-01-23T07:29:12.575Z,14.52
2018-01-23T07:31:40.787Z,11.18
2018-01-23T07:34:08.697Z,11.90
2018-01-23T07:36:36.563Z,16.10
2018-01-23T07:39:05.615Z,15.30
2018-01-23T07:41:33.085Z,21.70
2018-01-23T07:44:00.939Z,13.18
2018-01-23T07:46:29.249Z,12.43
2018-01-23T07:48:57.162Z,13.60
2018-01-23T07:51:25.379Z,13.45
2018-01-23T07:53:52.858Z,12.10
2018-01-23T07:56:20.337Z,13.65
2018-01-23T07:58:48.559Z,12.37
2018-01-23T08:01:16.868Z,12.10
2018-01-23T08:03:44.734Z,13.98
2018-01-23T08:06:12.984Z,13.98
2018-01-23T08:08:40.956Z,14.48
2018-01-23T08:11:08.811Z,19.67
2018-01-23T08:13:36.667Z,13.48
2018-01-23T08:16:05.234Z,14.75
2018-01-23T08:18:32.699Z,14.95
2018-01-23T08:21:00.171Z,20.83
2018-01-23T08:23:28.423Z,13.20
2018-01-23T08:25:56.293Z,9.90
2018-01-23T08:28:23.814Z,13.55
2018-01-23T08:30:51.640Z,12.10
2018-01-23T08:33:19.889Z,10.65
2018-01-23T08:35:47.360Z,16.50
2018-01-23T08:38:15.231Z,13.30
2018-01-23T08:40:43.634Z,13.70
2018-01-23T08:43:11.863Z,18.02
2018-01-23T08:45:39.748Z,12.40
2018-01-23T08:48:07.620Z,14.25
2018-01-23T08:50:35.864Z,14.93
2018-01-23T08:53:04.125Z,12.98
2018-01-23T08:55:31.603Z,13.27
2018-01-23T08:57:59.077Z,11.90
2018-01-23T09:00:27.399Z,11.23
2018-01-23T09:02:55.263Z,13.50
2018-01-23T09:05:22.759Z,14.80
2018-01-23T09:07:50.643Z,11.10
2018-01-23T09:10:18.519Z,16.55
2018-01-23T09:12:46.410Z,12.15
2018-01-23T09:15:13.894Z,8.85
2018-01-23T09:17:41.440Z,13.73
2018-01-23T09:20:09.336Z,13.90
2018-01-23T09:22:37.223Z,16.10
2018-01-23T09:25:04.687Z,10.52
2018-01-23T09:27:32.549Z,9.43
2018-01-23T09:30:01.801Z,10.13
2018-01-23T09:32:29.853Z,8.15
2018-01-23T09:34:57.942Z,10.30
2018-01-23T09:37:25.432Z,12.50
2018-01-23T09:39:53.295Z,10.90
2018-01-23T09:42:21.163Z,11.20
2018-01-23T09:44:48.960Z,12.82
2018-01-23T09:47:16.469Z,10.05
2018-01-23T09:49:44.732Z,7.90
2018-01-23T09:52:12.206Z,14.80
2018-01-23T09:54:40.432Z,12.95
2018-01-23T09:57:08.327Z,12.07
2018-01-23T09:59:36.957Z,17.73
2018-01-23T10:02:04.823Z,11.95
2018-01-23T10:04:32.683Z,14.20
2018-01-23T10:07:01.655Z,10.95
2018-01-23T10:09:29.122Z,11.12
2018-01-23T10:11:56.637Z,9.40
2018-01-23T10:14:24.514Z,13.65
2018-01-23T10:16:52.174Z,10.82
2018-01-23T10:19:20.140Z,10.18
2018-01-23T10:21:48.382Z,7.75
2018-01-23T10:24:16.659Z,8.65
2018-01-23T10:26:44.896Z,9.85
2018-01-23T10:29:12.792Z,11.77
2018-01-23T10:31:41.139Z,7.10
2018-01-23T10:34:08.994Z,13.20
2018-01-23T10:36:36.589Z,12.85
2018-01-23T10:39:04.819Z,16.80
2018-01-23T10:41:33.501Z,11.77
2018-01-23T10:44:01.472Z,13.02
2018-01-23T10:46:30.090Z,10.57
2018-01-23T10:48:57.567Z,11.95
2018-01-23T10:51:25.889Z,10.68
2018-01-23T10:53:53.385Z,10.45
2018-01-23T10:56:21.984Z,11.88
2018-01-23T10:58:49.912Z,9.38
2018-01-23T11:01:19.718Z,10.73
2018-01-23T11:03:47.617Z,7.87
2018-01-23T11:06:15.546Z,8.50
2018-01-23T11:08:43.816Z,11.88
2018-01-23T11:11:12.103Z,15.45
2018-01-23T11:13:39.632Z,8.50
2018-01-23T11:16:07.908Z,6.62
2018-01-23T11:18:36.238Z,20.88
2018-01-23T11:21:04.149Z,17.50
2018-01-23T11:23:32.381Z,8.75
2018-01-23T11:26:01.359Z,7.82
2018-01-23T11:28:29.567Z,10.30
2018-01-23T11:30:57.437Z,13.00
2018-01-23T11:33:25.754Z,10.82
2018-01-23T11:35:53.727Z,9.30
2018-01-23T11:38:22.020Z,10.50
2018-01-23T11:40:49.482Z,9.20
2018-01-23T11:43:17.446Z,6.95
2018-01-23T11:45:45.310Z,6.10
2018-01-23T11:48:13.594Z,7.18
2018-01-23T11:50:41.471Z,5.68
2018-01-23T11:53:09.357Z,10.38
2018-01-23T11:55:37.276Z,6.43
2018-01-23T11:58:05.504Z,4.78
2018-01-23T12:00:33.803Z,7.30
2018-01-23T12:03:02.102Z,7.50
2018-01-23T12:05:29.576Z,6.28
2018-01-23T12:07:57.838Z,6.82
2018-01-23T12:10:25.723Z,4.35
2018-01-23T12:12:54.095Z,5.65
2018-01-23T12:15:22.326Z,3.53
2018-01-23T12:17:50.584Z,9.93
2018-01-23T12:20:18.503Z,8.00
2018-01-23T12:22:46.410Z,9.75
2018-01-23T12:25:14.852Z,4.20
2018-01-23T12:27:42.743Z,4.55
2018-01-23T12:30:11.026Z,12.30
2018-01-23T12:32:38.900Z,5.57
2018-01-23T12:35:06.923Z,7.45
2018-01-23T12:37:35.179Z,6.20
2018-01-23T12:40:03.044Z,8.68
2018-01-23T12:42:30.964Z,8.70
2018-01-23T12:44:59.962Z,8.27
2018-01-23T12:47:27.468Z,8.30
2018-01-23T12:49:55.778Z,9.02
2018-01-23T12:52:23.747Z,3.97
2018-01-23T12:54:51.980Z,3.87
2018-01-23T12:57:20.202Z,11.05
2018-01-23T12:59:51.931Z,9.32
2018-01-23T13:02:20.482Z,6.20
2018-01-23T13:04:48.351Z,8.23
2018-01-23T13:07:16.227Z,11.27
2018-01-23T13:09:44.116Z,9.00
2018-01-23T13:12:12.085Z,7.72
2018-01-23T13:14:40.339Z,7.18
2018-01-23T13:17:07.895Z,6.72
2018-01-23T13:19:35.762Z,6.32
2018-01-23T13:22:03.668Z,12.95
2018-01-23T13:24:31.571Z,13.80
2018-01-23T13:26:59.897Z,6.40
2018-01-23T13:29:28.515Z,14.07
2018-01-23T13:31:56.399Z,11.63
2018-01-23T13:34:24.674Z,10.55
2018-01-23T13:36:52.921Z,7.45
2018-01-23T13:39:20.836Z,7.97
2018-01-23T13:41:49.069Z,11.80
2018-01-23T13:44:17.007Z,13.40
2018-01-23T13:46:44.891Z,12.88
2018-01-23T13:49:12.752Z,7.00
2018-01-23T13:51:41.054Z,12.23
2018-01-23T13:54:08.938Z,9.02
2018-01-23T13:56:36.437Z,9.90
2018-01-23T13:59:04.000Z,9.38
2018-01-23T14:01:31.917Z,12.05
2018-01-23T14:04:00.912Z,10.93
2018-01-23T14:06:29.159Z,10.13
2018-01-23T14:08:57.407Z,8.07
2018-01-23T14:11:25.379Z,11.77
2018-01-23T14:13:52.860Z,10.38
2018-01-23T14:16:20.620Z,5.80
2018-01-23T14:18:48.483Z,10.65
2018-01-23T14:21:16.709Z,8.40
2018-01-23T14:23:44.209Z,11.40
2018-01-23T14:26:12.168Z,9.05
2018-01-23T14:28:40.067Z,6.40
2018-01-23T14:31:08.316Z,15.07
2018-01-23T14:33:36.285Z,13.65
2018-01-23T14:36:04.535Z,8.30
2018-01-23T14:38:34.226Z,6.85
2018-01-23T14:41:02.128Z,8.85
2018-01-23T14:43:29.975Z,7.68
2018-01-23T14:45:57.860Z,11.25
2018-01-23T14:48:25.711Z,9.48
2018-01-23T14:50:53.165Z,9.52
2018-01-23T14:53:21.055Z,9.85
2018-01-23T14:55:49.859Z,13.32
2018-01-23T14:58:18.108Z,10.48
2018-01-23T15:00:45.778Z,8.52
2018-01-23T15:03:13.673Z,9.23
2018-01-23T15:05:41.216Z,14.00
2018-01-23T15:08:09.462Z,10.43
2018-01-23T15:10:37.451Z,8.63
2018-01-23T15:13:06.978Z,13.27
2018-01-23T15:15:35.668Z,10.93
2018-01-23T15:18:03.520Z,10.73
2018-01-23T15:20:31.407Z,13.40
2018-01-23T15:22:59.975Z,8.35
2018-01-23T15:25:31.350Z,12.43
2018-01-23T15:27:59.713Z,12.27
2018-01-23T15:30:28.006Z,11.15
2018-01-23T15:32:56.302Z,14.80
2018-01-23T15:35:24.657Z,12.65
2018-01-23T15:37:53.330Z,15.77
2018-01-23T15:40:21.671Z,9.85
2018-01-23T15:42:50.106Z,11.85
2018-01-23T15:45:18.529Z,14.32
2018-01-23T15:47:46.829Z,13.00
2018-01-23T15:50:14.692Z,15.80
2018-01-23T15:52:42.966Z,15.88
2018-01-23T15:55:10.524Z,22.75
2018-01-23T15:57:38.776Z,19.12
2018-01-23T16:00:07.778Z,15.50
2018-01-23T16:02:37.107Z,14.55
2018-01-23T16:05:04.651Z,19.20
2018-01-23T16:07:33.474Z,17.40
2018-01-23T16:10:01.754Z,13.57
2018-01-23T16:12:31.576Z,17.80
2018-01-23T16:14:59.065Z,18.42
2018-01-23T16:17:26.965Z,16.10
2018-01-23T16:19:55.237Z,23.90
2018-01-23T16:22:23.793Z,23.23
2018-01-23T16:24:52.036Z,17.10
2018-01-23T16:27:20.343Z,15.75
2018-01-23T16:29:48.742Z,21.27
2018-01-23T16:32:16.983Z,22.33
2018-01-23T16:34:45.068Z,17.67
2018-01-23T16:37:13.508Z,21.02
2018-01-23T16:39:41.752Z,22.00
2018-01-23T16:42:09.628Z,19.20
2018-01-23T16:44:37.915Z,13.32
2018-01-23T16:47:06.901Z,25.48
2018-01-23T16:49:34.396Z,23.30
2018-01-23T16:52:02.686Z,28.75
2018-01-23T16:54:30.619Z,28.05
2018-01-23T16:56:59.192Z,22.10
2018-01-23T16:59:27.126Z,25.95
2018-01-23T17:01:55.490Z,21.15
2018-01-23T17:04:23.362Z,28.73
2018-01-23T17:06:51.406Z,27.62
2018-01-23T17:09:20.067Z,23.15
2018-01-23T17:11:48.310Z,22.73
2018-01-23T17:14:16.187Z,19.80
2018-01-23T17:16:45.838Z,26.62
2018-01-23T17:19:14.136Z,25.62
2018-01-23T17:21:41.619Z,29.33
2018-01-23T17:24:09.855Z,28.65
2018-01-23T17:26:38.105Z,24.37
2018-01-23T17:29:05.939Z,25.35
2018-01-23T17:31:35.589Z,28.60
2018-01-23T17:34:03.822Z,26.00
2018-01-23T17:36:32.068Z,29.77
2018-01-23T17:38:59.555Z,24.20
2018-01-23T17:41:28.579Z,24.98
2018-01-23T17:43:56.859Z,30.02
2018-01-23T17:46:25.122Z,21.67
2018-01-23T17:48:54.563Z,33.15
2018-01-23T17:51:22.950Z,32.95
2018-01-23T17:53:50.824Z,28.73
2018-01-23T17:56:19.110Z,31.50
2018-01-23T17:58:47.347Z,22.42
2018-01-23T18:01:15.607Z,18.02
2018-01-23T18:03:43.470Z,29.63
2018-01-23T18:06:11.990Z,29.83
2018-01-23T18:08:39.877Z,21.85
2018-01-23T18:11:07.343Z,33.70
2018-01-23T18:13:35.807Z,31.62
2018-01-23T18:16:03.766Z,27.25
2018-01-23T18:18:31.279Z,33.08
2018-01-23T18:20:59.515Z,35.55
2018-01-23T18:23:28.624Z,35.80
2018-01-23T18:25:56.535Z,25.55
2018-01-23T18:28:24.773Z,29.37
2018-01-23T18:30:53.116Z,26.73
2018-01-23T18:33:21.369Z,36.40
2018-01-23T18:35:49.603Z,33.63
2018-01-23T18:38:18.602Z,31.23
2018-01-23T18:40:46.477Z,24.05
2018-01-23T18:43:14.752Z,27.17
2018-01-23T18:45:42.767Z,26.37
2018-01-23T18:48:11.173Z,33.10
2018-01-23T18:50:38.686Z,24.27
2018-01-23T18:53:06.167Z,29.60
2018-01-23T18:55:34.133Z,31.92
2018-01-23T18:58:02.814Z,33.03
2018-01-23T19:00:31.073Z,25.95
2018-01-23T19:02:58.572Z,32.60
2018-01-23T19:05:26.274Z,23.17
2018-01-23T19:07:54.512Z,35.05
2018-01-23T19:10:22.743Z,35.00
2018-01-23T19:12:51.024Z,23.17
2018-01-23T19:15:18.901Z,27.20
2018-01-23T19:17:47.282Z,30.05
2018-01-23T19:20:15.566Z,20.73
2018-01-23T19:22:43.837Z,32.38
2018-01-23T19:25:11.724Z,20.88
2018-01-23T19:27:39.631Z,34.33
2018-01-23T19:30:07.944Z,31.08
2018-01-23T19:32:35.860Z,35.75
2018-01-23T19:35:04.175Z,27.48
2018-01-23T19:37:32.056Z,32.83
2018-01-23T19:40:00.074Z,33.10
2018-01-23T19:42:27.948Z,34.63
2018-01-23T19:44:56.203Z,33.25
2018-01-23T19:47:24.585Z,33.72
2018-01-23T19:49:52.458Z,35.67
2018-01-23T19:52:20.695Z,36.90
2018-01-23T19:54:49.767Z,30.40
2018-01-23T19:57:17.255Z,36.65
2018-01-23T19:59:45.133Z,32.40
2018-01-23T20:02:13.011Z,41.70
2018-01-23T20:04:40.941Z,33.45
2018-01-23T20:07:08.473Z,29.58
2018-01-23T20:09:36.346Z,37.55
2018-01-23T20:12:04.605Z,32.08
2018-01-23T20:14:33.178Z,35.92
2018-01-23T20:17:02.044Z,31.83
2018-01-23T20:19:30.299Z,29.77
2018-01-23T20:21:58.331Z,31.20
2018-01-23T20:24:26.410Z,27.67
2018-01-23T20:26:54.076Z,33.05
2018-01-23T20:29:22.488Z,27.98
2018-01-23T20:31:50.536Z,22.13
2018-01-23T20:34:19.228Z,29.90
2018-01-23T20:36:47.840Z,32.67
2018-01-23T20:39:15.895Z,30.27
2018-01-23T20:41:43.610Z,29.17
2018-01-23T20:44:11.574Z,29.25
2018-01-23T20:46:40.430Z,28.45
2018-01-23T20:49:08.780Z,30.67
2018-01-23T20:51:36.663Z,29.75
2018-01-23T20:54:04.179Z,32.50
2018-01-23T20:56:32.567Z,31.80
2018-01-23T20:59:00.929Z,33.55
2018-01-23T21:01:28.930Z,32.38
2018-01-23T21:03:58.351Z,30.65
2018-01-23T21:06:26.689Z,32.35
2018-01-23T21:08:54.187Z,30.62
2018-01-23T21:11:22.416Z,21.23
2018-01-23T21:13:50.672Z,30.37
2018-01-23T21:16:19.235Z,30.60
2018-01-23T21:18:47.607Z,30.85
2018-01-23T21:21:17.297Z,27.90
2018-01-23T21:23:44.872Z,28.55
2018-01-23T21:26:12.843Z,32.17
2018-01-23T21:28:41.099Z,28.58
2018-01-23T21:31:09.760Z,28.20
2018-01-23T21:33:38.390Z,29.25
2018-01-23T21:36:08.055Z,25.00
2018-01-23T21:38:36.088Z,27.60
2018-01-23T21:41:04.005Z,22.55
2018-01-23T21:43:31.927Z,27.27
2018-01-23T21:45:59.814Z,27.95
2018-01-23T21:48:28.120Z,28.73
2018-01-23T21:50:56.649Z,30.88
2018-01-23T21:53:24.632Z,28.12
2018-01-23T21:55:54.295Z,27.17
2018-01-23T21:58:22.203Z,22.75
2018-01-23T22:00:50.495Z,19.45
2018-01-23T22:03:19.310Z,19.85
2018-01-23T22:05:47.911Z,18.70
2018-01-23T22:08:16.276Z,19.33
2018-01-23T22:10:44.148Z,18.73
2018-01-23T22:13:12.035Z,13.70
2018-01-23T22:15:39.938Z,11.63
2018-01-23T22:18:07.933Z,11.10
2018-01-23T22:20:36.138Z,12.30
2018-01-23T22:23:04.715Z,8.02
2018-01-23T22:25:32.275Z,8.85
2018-01-23T22:27:59.764Z,5.62
2018-01-23T22:30:27.655Z,6.60
2018-01-23T22:32:56.060Z,8.35
2018-01-23T22:35:24.361Z,11.23
2018-01-23T22:37:53.005Z,8.80
2018-01-23T22:40:21.234Z,10.63
2018-01-23T22:42:49.575Z,11.70
2018-01-23T22:45:18.221Z,8.77
2018-01-23T22:47:46.497Z,8.30
2018-01-23T22:50:14.388Z,13.25
2018-01-23T22:52:42.948Z,11.38
2018-01-23T22:55:11.774Z,11.75
2018-01-23T22:57:40.561Z,10.60
2018-01-23T23:00:08.055Z,9.70
2018-01-23T23:02:36.550Z,10.57
2018-01-23T23:05:04.465Z,8.90
2018-01-23T23:07:31.975Z,8.73
2018-01-23T23:09:59.732Z,11.80
2018-01-23T23:12:27.627Z,10.55
2018-01-23T23:14:55.968Z,10.18
2018-01-23T23:17:24.208Z,10.50
2018-01-23T23:19:52.087Z,11.12
2018-01-23T23:22:20.311Z,9.55
2018-01-23T23:24:48.831Z,11.12
2018-01-23T23:27:17.431Z,9.93
2018-01-23T23:29:45.487Z,11.93
2018-01-23T23:32:21.612Z,11.40
2018-01-23T23:34:50.491Z,11.52
2018-01-23T23:37:18.814Z,12.43
2018-01-23T23:39:46.684Z,12.32
2018-01-23T23:42:14.907Z,13.15
2018-01-23T23:44:42.772Z,12.32
2018-01-23T23:47:11.016Z,12.68
